sensor_id;sensor_type;location;lat;lon;timestamp;temperature;humidity
37786;DHT22;23625;48.784;9.336;2023-06-24T00:00:30;15.00;99.90
37786;DHT22;23625;48.784;9.336;2023-06-24T00:02:56;15.00;99.90
37786;DHT22;23625;48.784;9.336;2023-06-24T00:05:22;14.90;99.90
37786;DHT22;23625;48.784;9.336;2023-06-24T00:07:48;14.80;99.90
37786;DHT22;23625;48.784;9.336;2023-06-24T00:10:14;14.80;99.90
37786;DHT22;23625;48.784;9.336;2023-06-24T00:12:40;14.70;99.90
37786;DHT22;23625;48.784;9.336;2023-06-24T00:15:07;14.70;99.90
37786;DHT22;23625;48.784;9.336;2023-06-24T00:17:35;14.60;99.90
37786;DHT22;23625;48.784;9.336;2023-06-24T00:20:01;14.70;99.90
37786;DHT22;23625;48.784;9.336;2023-06-24T00:22:29;14.80;99.90
37786;DHT22;23625;48.784;9.336;2023-06-24T00:24:55;14.70;99.90
37786;DHT22;23625;48.784;9.336;2023-06-24T00:27:22;14.60;99.90
37786;DHT22;23625;48.784;9.336;2023-06-24T00:29:47;14.60;99.90
37786;DHT22;23625;48.784;9.336;2023-06-24T00:32:13;14.50;99.90
37786;DHT22;23625;48.784;9.336;2023-06-24T00:34:38;14.40;99.90
37786;DHT22;23625;48.784;9.336;2023-06-24T00:37:11;14.40;99.90
37786;DHT22;23625;48.784;9.336;2023-06-24T00:39:37;14.40;99.90
37786;DHT22;23625;48.784;9.336;2023-06-24T00:42:02;14.40;99.90
37786;DHT22;23625;48.784;9.336;2023-06-24T00:44:28;14.40;99.90
37786;DHT22;23625;48.784;9.336;2023-06-24T00:46:54;14.40;99.90
37786;DHT22;23625;48.784;9.336;2023-06-24T00:49:19;14.30;99.90
37786;DHT22;23625;48.784;9.336;2023-06-24T00:51:45;14.30;99.90
37786;DHT22;23625;48.784;9.336;2023-06-24T00:54:19;14.30;99.90
37786;DHT22;23625;48.784;9.336;2023-06-24T00:56:46;14.30;99.90
37786;DHT22;23625;48.784;9.336;2023-06-24T00:59:15;14.20;99.90
37786;DHT22;23625;48.784;9.336;2023-06-24T01:01:42;14.20;99.90
37786;DHT22;23625;48.784;9.336;2023-06-24T01:04:08;14.10;99.90
37786;DHT22;23625;48.784;9.336;2023-06-24T01:06:35;14.10;99.90
37786;DHT22;23625;48.784;9.336;2023-06-24T01:09:01;14.00;99.90
37786;DHT22;23625;48.784;9.336;2023-06-24T01:11:31;14.00;99.90
37786;DHT22;23625;48.784;9.336;2023-06-24T01:13:57;14.00;99.90
37786;DHT22;23625;48.784;9.336;2023-06-24T01:31:04;14.00;99.90
37786;DHT22;23625;48.784;9.336;2023-06-24T01:36:25;14.00;99.90
37786;DHT22;23625;48.784;9.336;2023-06-24T01:39:02;13.90;99.90
37786;DHT22;23625;48.784;9.336;2023-06-24T01:41:34;13.90;99.90
37786;DHT22;23625;48.784;9.336;2023-06-24T01:44:00;13.80;99.90
37786;DHT22;23625;48.784;9.336;2023-06-24T01:46:29;13.80;99.90
37786;DHT22;23625;48.784;9.336;2023-06-24T01:48:58;13.80;99.90
37786;DHT22;23625;48.784;9.336;2023-06-24T01:51:26;13.80;99.90
37786;DHT22;23625;48.784;9.336;2023-06-24T01:54:01;13.80;99.90
37786;DHT22;23625;48.784;9.336;2023-06-24T01:56:28;13.80;99.90
37786;DHT22;23625;48.784;9.336;2023-06-24T01:58:56;13.90;99.90
37786;DHT22;23625;48.784;9.336;2023-06-24T02:01:24;13.80;99.90
37786;DHT22;23625;48.784;9.336;2023-06-24T02:03:50;13.80;99.90
37786;DHT22;23625;48.784;9.336;2023-06-24T02:06:19;13.70;99.90
37786;DHT22;23625;48.784;9.336;2023-06-24T02:08:48;13.70;99.90
37786;DHT22;23625;48.784;9.336;2023-06-24T02:11:14;13.70;99.90
37786;DHT22;23625;48.784;9.336;2023-06-24T02:13:42;13.70;99.90
37786;DHT22;23625;48.784;9.336;2023-06-24T02:16:09;13.70;99.90
37786;DHT22;23625;48.784;9.336;2023-06-24T02:18:38;13.70;99.90
37786;DHT22;23625;48.784;9.336;2023-06-24T02:21:08;13.60;99.90
37786;DHT22;23625;48.784;9.336;2023-06-24T02:23:35;13.60;99.90
37786;DHT22;23625;48.784;9.336;2023-06-24T02:26:03;13.60;99.90
37786;DHT22;23625;48.784;9.336;2023-06-24T02:28:31;13.50;99.90
37786;DHT22;23625;48.784;9.336;2023-06-24T02:30:59;13.50;99.90
37786;DHT22;23625;48.784;9.336;2023-06-24T02:33:25;13.40;99.90
37786;DHT22;23625;48.784;9.336;2023-06-24T02:35:54;13.40;99.90
37786;DHT22;23625;48.784;9.336;2023-06-24T02:38:20;13.40;99.90
37786;DHT22;23625;48.784;9.336;2023-06-24T02:40:45;13.30;99.90
37786;DHT22;23625;48.784;9.336;2023-06-24T02:43:11;13.40;99.90
37786;DHT22;23625;48.784;9.336;2023-06-24T02:45:38;13.30;99.90
37786;DHT22;23625;48.784;9.336;2023-06-24T02:48:05;13.30;99.90
37786;DHT22;23625;48.784;9.336;2023-06-24T02:50:31;13.30;99.90
37786;DHT22;23625;48.784;9.336;2023-06-24T02:52:58;13.30;99.90
37786;DHT22;23625;48.784;9.336;2023-06-24T02:55:24;13.30;99.90
37786;DHT22;23625;48.784;9.336;2023-06-24T02:57:51;13.30;99.90
37786;DHT22;23625;48.784;9.336;2023-06-24T03:00:17;13.30;99.90
37786;DHT22;23625;48.784;9.336;2023-06-24T03:02:43;13.30;99.90
37786;DHT22;23625;48.784;9.336;2023-06-24T03:05:10;13.30;99.90
37786;DHT22;23625;48.784;9.336;2023-06-24T03:07:37;13.30;99.90
37786;DHT22;23625;48.784;9.336;2023-06-24T03:10:04;13.20;99.90
37786;DHT22;23625;48.784;9.336;2023-06-24T03:12:31;13.20;99.90
37786;DHT22;23625;48.784;9.336;2023-06-24T03:14:57;13.20;99.90
37786;DHT22;23625;48.784;9.336;2023-06-24T03:17:22;13.20;99.90
37786;DHT22;23625;48.784;9.336;2023-06-24T03:19:50;13.20;99.90
37786;DHT22;23625;48.784;9.336;2023-06-24T03:22:15;13.20;99.90
37786;DHT22;23625;48.784;9.336;2023-06-24T03:24:42;13.20;99.90
37786;DHT22;23625;48.784;9.336;2023-06-24T03:27:08;13.20;99.90
37786;DHT22;23625;48.784;9.336;2023-06-24T03:29:33;13.20;99.90
37786;DHT22;23625;48.784;9.336;2023-06-24T03:31:59;13.20;99.90
37786;DHT22;23625;48.784;9.336;2023-06-24T03:34:24;13.20;99.90
37786;DHT22;23625;48.784;9.336;2023-06-24T03:36:52;13.20;99.90
37786;DHT22;23625;48.784;9.336;2023-06-24T03:39:20;13.10;99.90
37786;DHT22;23625;48.784;9.336;2023-06-24T03:41:45;13.10;99.90
37786;DHT22;23625;48.784;9.336;2023-06-24T03:44:11;13.10;99.90
37786;DHT22;23625;48.784;9.336;2023-06-24T03:46:37;13.10;99.90
37786;DHT22;23625;48.784;9.336;2023-06-24T03:49:03;13.10;99.90
37786;DHT22;23625;48.784;9.336;2023-06-24T03:51:28;13.20;99.90
37786;DHT22;23625;48.784;9.336;2023-06-24T03:53:54;13.20;99.90
37786;DHT22;23625;48.784;9.336;2023-06-24T03:56:19;13.20;99.90
37786;DHT22;23625;48.784;9.336;2023-06-24T03:58:45;13.20;99.90
37786;DHT22;23625;48.784;9.336;2023-06-24T04:01:11;13.20;99.90
37786;DHT22;23625;48.784;9.336;2023-06-24T04:03:36;13.30;99.90
37786;DHT22;23625;48.784;9.336;2023-06-24T04:06:02;13.30;99.90
37786;DHT22;23625;48.784;9.336;2023-06-24T04:08:27;13.40;99.90
37786;DHT22;23625;48.784;9.336;2023-06-24T04:10:58;13.40;99.90
37786;DHT22;23625;48.784;9.336;2023-06-24T04:13:25;13.50;99.90
37786;DHT22;23625;48.784;9.336;2023-06-24T04:15:51;13.50;99.90
37786;DHT22;23625;48.784;9.336;2023-06-24T04:18:17;13.50;99.90
37786;DHT22;23625;48.784;9.336;2023-06-24T04:20:43;13.50;99.90
37786;DHT22;23625;48.784;9.336;2023-06-24T04:23:09;13.50;99.90
37786;DHT22;23625;48.784;9.336;2023-06-24T04:25:36;13.60;99.90
37786;DHT22;23625;48.784;9.336;2023-06-24T04:28:03;13.60;99.90
37786;DHT22;23625;48.784;9.336;2023-06-24T04:30:30;13.70;99.90
37786;DHT22;23625;48.784;9.336;2023-06-24T04:32:56;13.70;99.90
37786;DHT22;23625;48.784;9.336;2023-06-24T04:35:21;13.80;99.90
37786;DHT22;23625;48.784;9.336;2023-06-24T04:37:47;13.90;99.90
37786;DHT22;23625;48.784;9.336;2023-06-24T04:40:16;13.90;99.90
37786;DHT22;23625;48.784;9.336;2023-06-24T04:42:41;14.00;99.90
37786;DHT22;23625;48.784;9.336;2023-06-24T04:45:07;14.20;99.90
37786;DHT22;23625;48.784;9.336;2023-06-24T04:47:33;14.20;99.90
37786;DHT22;23625;48.784;9.336;2023-06-24T04:49:58;14.30;99.90
37786;DHT22;23625;48.784;9.336;2023-06-24T04:52:24;14.40;99.90
37786;DHT22;23625;48.784;9.336;2023-06-24T04:54:50;14.50;99.90
37786;DHT22;23625;48.784;9.336;2023-06-24T04:57:30;14.60;99.90
37786;DHT22;23625;48.784;9.336;2023-06-24T04:59:56;14.80;99.90
37786;DHT22;23625;48.784;9.336;2023-06-24T05:02:22;14.80;99.90
37786;DHT22;23625;48.784;9.336;2023-06-24T05:04:49;14.90;99.90
37786;DHT22;23625;48.784;9.336;2023-06-24T05:07:15;15.10;99.90
37786;DHT22;23625;48.784;9.336;2023-06-24T05:09:41;15.20;99.90
37786;DHT22;23625;48.784;9.336;2023-06-24T05:12:07;15.30;99.90
37786;DHT22;23625;48.784;9.336;2023-06-24T05:14:36;15.40;99.90
37786;DHT22;23625;48.784;9.336;2023-06-24T05:17:03;15.50;99.90
37786;DHT22;23625;48.784;9.336;2023-06-24T05:19:29;15.50;99.90
37786;DHT22;23625;48.784;9.336;2023-06-24T05:21:55;15.60;99.90
37786;DHT22;23625;48.784;9.336;2023-06-24T05:24:20;15.70;99.90
37786;DHT22;23625;48.784;9.336;2023-06-24T05:26:49;15.80;99.90
37786;DHT22;23625;48.784;9.336;2023-06-24T05:29:15;16.00;99.90
37786;DHT22;23625;48.784;9.336;2023-06-24T05:31:41;16.20;99.90
37786;DHT22;23625;48.784;9.336;2023-06-24T05:34:07;16.30;99.90
37786;DHT22;23625;48.784;9.336;2023-06-24T05:36:33;16.40;99.90
37786;DHT22;23625;48.784;9.336;2023-06-24T05:38:59;16.60;99.90
37786;DHT22;23625;48.784;9.336;2023-06-24T05:41:24;16.90;99.90
37786;DHT22;23625;48.784;9.336;2023-06-24T05:44:01;17.00;99.90
37786;DHT22;23625;48.784;9.336;2023-06-24T05:46:27;17.20;99.90
37786;DHT22;23625;48.784;9.336;2023-06-24T05:48:52;17.30;99.90
37786;DHT22;23625;48.784;9.336;2023-06-24T05:51:18;17.50;99.90
37786;DHT22;23625;48.784;9.336;2023-06-24T05:53:43;17.60;99.90
37786;DHT22;23625;48.784;9.336;2023-06-24T05:56:09;17.70;99.90
37786;DHT22;23625;48.784;9.336;2023-06-24T05:58:35;17.80;99.90
37786;DHT22;23625;48.784;9.336;2023-06-24T06:01:00;17.90;99.90
37786;DHT22;23625;48.784;9.336;2023-06-24T06:03:26;18.10;99.90
37786;DHT22;23625;48.784;9.336;2023-06-24T06:05:52;18.10;99.90
37786;DHT22;23625;48.784;9.336;2023-06-24T06:08:17;18.20;99.90
37786;DHT22;23625;48.784;9.336;2023-06-24T06:10:43;18.30;99.90
37786;DHT22;23625;48.784;9.336;2023-06-24T06:13:09;18.40;99.90
37786;DHT22;23625;48.784;9.336;2023-06-24T06:15:34;18.50;99.90
37786;DHT22;23625;48.784;9.336;2023-06-24T06:18:00;18.50;99.90
37786;DHT22;23625;48.784;9.336;2023-06-24T06:20:25;18.60;99.90
37786;DHT22;23625;48.784;9.336;2023-06-24T06:22:51;18.70;99.90
37786;DHT22;23625;48.784;9.336;2023-06-24T06:25:16;18.80;99.90
37786;DHT22;23625;48.784;9.336;2023-06-24T06:27:42;18.80;99.90
37786;DHT22;23625;48.784;9.336;2023-06-24T06:30:08;18.90;99.90
37786;DHT22;23625;48.784;9.336;2023-06-24T06:32:34;19.00;99.90
37786;DHT22;23625;48.784;9.336;2023-06-24T06:34:59;19.00;99.90
37786;DHT22;23625;48.784;9.336;2023-06-24T06:37:25;19.20;99.90
37786;DHT22;23625;48.784;9.336;2023-06-24T06:39:50;19.30;99.90
37786;DHT22;23625;48.784;9.336;2023-06-24T06:42:16;19.40;99.90
37786;DHT22;23625;48.784;9.336;2023-06-24T06:44:41;19.50;99.90
37786;DHT22;23625;48.784;9.336;2023-06-24T06:47:07;19.60;99.10
37786;DHT22;23625;48.784;9.336;2023-06-24T06:49:33;19.70;97.20
37786;DHT22;23625;48.784;9.336;2023-06-24T06:51:58;19.70;98.00
37786;DHT22;23625;48.784;9.336;2023-06-24T06:54:24;19.80;94.80
37786;DHT22;23625;48.784;9.336;2023-06-24T06:56:49;19.90;96.20
37786;DHT22;23625;48.784;9.336;2023-06-24T06:59:15;19.90;94.40
37786;DHT22;23625;48.784;9.336;2023-06-24T07:01:40;20.00;94.80
37786;DHT22;23625;48.784;9.336;2023-06-24T07:04:06;20.10;93.60
37786;DHT22;23625;48.784;9.336;2023-06-24T07:06:32;20.20;92.10
37786;DHT22;23625;48.784;9.336;2023-06-24T07:08:58;20.30;93.10
37786;DHT22;23625;48.784;9.336;2023-06-24T07:11:23;20.30;91.10
37786;DHT22;23625;48.784;9.336;2023-06-24T07:13:50;20.50;90.80
37786;DHT22;23625;48.784;9.336;2023-06-24T07:16:17;20.60;87.70
37786;DHT22;23625;48.784;9.336;2023-06-24T07:18:42;20.70;83.70
37786;DHT22;23625;48.784;9.336;2023-06-24T07:21:08;20.80;87.50
37786;DHT22;23625;48.784;9.336;2023-06-24T07:23:33;21.00;85.70
37786;DHT22;23625;48.784;9.336;2023-06-24T07:25:59;21.10;83.30
37786;DHT22;23625;48.784;9.336;2023-06-24T07:28:25;21.30;84.70
37786;DHT22;23625;48.784;9.336;2023-06-24T07:30:50;21.40;79.90
37786;DHT22;23625;48.784;9.336;2023-06-24T07:33:16;21.50;76.50
37786;DHT22;23625;48.784;9.336;2023-06-24T07:35:42;21.70;73.20
37786;DHT22;23625;48.784;9.336;2023-06-24T07:38:07;21.60;74.20
37786;DHT22;23625;48.784;9.336;2023-06-24T07:40:33;21.60;73.90
37786;DHT22;23625;48.784;9.336;2023-06-24T07:42:58;21.80;74.90
37786;DHT22;23625;48.784;9.336;2023-06-24T07:45:24;22.00;73.60
37786;DHT22;23625;48.784;9.336;2023-06-24T07:47:50;22.10;74.30
37786;DHT22;23625;48.784;9.336;2023-06-24T07:50:16;22.40;73.80
37786;DHT22;23625;48.784;9.336;2023-06-24T07:52:42;22.60;73.90
37786;DHT22;23625;48.784;9.336;2023-06-24T07:55:07;22.80;72.40
37786;DHT22;23625;48.784;9.336;2023-06-24T07:57:33;22.90;70.00
37786;DHT22;23625;48.784;9.336;2023-06-24T07:59:59;23.10;68.00
37786;DHT22;23625;48.784;9.336;2023-06-24T08:02:24;23.20;66.30
37786;DHT22;23625;48.784;9.336;2023-06-24T08:04:50;23.30;65.00
37786;DHT22;23625;48.784;9.336;2023-06-24T08:07:16;23.40;63.10
37786;DHT22;23625;48.784;9.336;2023-06-24T08:09:42;23.60;61.80
37786;DHT22;23625;48.784;9.336;2023-06-24T08:12:08;23.50;62.00
37786;DHT22;23625;48.784;9.336;2023-06-24T08:14:33;23.50;62.00
37786;DHT22;23625;48.784;9.336;2023-06-24T08:16:59;23.40;61.90
37786;DHT22;23625;48.784;9.336;2023-06-24T08:19:24;23.30;62.80
37786;DHT22;23625;48.784;9.336;2023-06-24T08:21:50;23.50;63.70
37786;DHT22;23625;48.784;9.336;2023-06-24T08:24:16;23.60;63.20
37786;DHT22;23625;48.784;9.336;2023-06-24T08:26:41;23.70;62.80
37786;DHT22;23625;48.784;9.336;2023-06-24T08:29:25;23.70;62.20
37786;DHT22;23625;48.784;9.336;2023-06-24T08:32:10;23.60;62.80
37786;DHT22;23625;48.784;9.336;2023-06-24T08:34:35;23.60;63.40
37786;DHT22;23625;48.784;9.336;2023-06-24T08:37:01;23.80;63.70
37786;DHT22;23625;48.784;9.336;2023-06-24T08:39:26;24.10;64.10
37786;DHT22;23625;48.784;9.336;2023-06-24T08:41:52;24.40;63.30
37786;DHT22;23625;48.784;9.336;2023-06-24T08:44:18;24.70;61.50
37786;DHT22;23625;48.784;9.336;2023-06-24T08:46:44;24.90;59.50
37786;DHT22;23625;48.784;9.336;2023-06-24T08:51:44;25.40;57.80
37786;DHT22;23625;48.784;9.336;2023-06-24T08:54:14;25.50;56.20
37786;DHT22;23625;48.784;9.336;2023-06-24T08:56:40;25.60;56.00
37786;DHT22;23625;48.784;9.336;2023-06-24T08:59:07;25.40;54.80
37786;DHT22;23625;48.784;9.336;2023-06-24T09:01:34;25.10;55.30
37786;DHT22;23625;48.784;9.336;2023-06-24T09:03:59;25.10;54.80
37786;DHT22;23625;48.784;9.336;2023-06-24T09:06:25;25.20;54.90
37786;DHT22;23625;48.784;9.336;2023-06-24T09:08:55;25.40;54.90
37786;DHT22;23625;48.784;9.336;2023-06-24T09:11:27;25.80;54.90
37786;DHT22;23625;48.784;9.336;2023-06-24T09:13:57;25.80;53.80
37786;DHT22;23625;48.784;9.336;2023-06-24T09:16:23;26.00;53.30
37786;DHT22;23625;48.784;9.336;2023-06-24T09:18:50;25.80;53.10
37786;DHT22;23625;48.784;9.336;2023-06-24T09:21:25;25.20;54.20
37786;DHT22;23625;48.784;9.336;2023-06-24T09:23:55;24.90;55.40
37786;DHT22;23625;48.784;9.336;2023-06-24T09:26:26;25.00;55.80
37786;DHT22;23625;48.784;9.336;2023-06-24T09:28:52;25.30;55.80
37786;DHT22;23625;48.784;9.336;2023-06-24T09:31:18;25.60;55.00
37786;DHT22;23625;48.784;9.336;2023-06-24T09:33:45;26.10;53.70
37786;DHT22;23625;48.784;9.336;2023-06-24T09:36:14;26.30;52.60
37786;DHT22;23625;48.784;9.336;2023-06-24T09:38:42;26.20;53.10
37786;DHT22;23625;48.784;9.336;2023-06-24T09:41:10;26.30;53.00
37786;DHT22;23625;48.784;9.336;2023-06-24T09:43:36;26.40;52.00
37786;DHT22;23625;48.784;9.336;2023-06-24T09:46:03;26.50;50.90
37786;DHT22;23625;48.784;9.336;2023-06-24T09:48:29;26.80;48.40
37786;DHT22;23625;48.784;9.336;2023-06-24T09:50:59;27.10;48.10
37786;DHT22;23625;48.784;9.336;2023-06-24T09:53:25;27.60;48.40
37786;DHT22;23625;48.784;9.336;2023-06-24T09:55:52;27.60;47.20
37786;DHT22;23625;48.784;9.336;2023-06-24T09:58:19;27.70;47.10
37786;DHT22;23625;48.784;9.336;2023-06-24T10:00:45;27.80;46.40
37786;DHT22;23625;48.784;9.336;2023-06-24T10:03:11;27.70;46.40
37786;DHT22;23625;48.784;9.336;2023-06-24T10:05:37;27.70;45.70
37786;DHT22;23625;48.784;9.336;2023-06-24T10:08:05;27.70;45.10
37786;DHT22;23625;48.784;9.336;2023-06-24T10:10:31;27.60;45.90
37786;DHT22;23625;48.784;9.336;2023-06-24T10:12:57;27.70;46.90
37786;DHT22;23625;48.784;9.336;2023-06-24T10:15:23;27.80;46.40
37786;DHT22;23625;48.784;9.336;2023-06-24T10:17:50;27.80;45.30
37786;DHT22;23625;48.784;9.336;2023-06-24T10:20:24;27.90;45.60
37786;DHT22;23625;48.784;9.336;2023-06-24T10:22:51;27.90;44.90
37786;DHT22;23625;48.784;9.336;2023-06-24T10:25:17;27.70;45.80
37786;DHT22;23625;48.784;9.336;2023-06-24T10:27:44;27.60;45.50
37786;DHT22;23625;48.784;9.336;2023-06-24T10:30:17;27.60;46.30
37786;DHT22;23625;48.784;9.336;2023-06-24T10:32:51;27.60;46.70
37786;DHT22;23625;48.784;9.336;2023-06-24T10:35:27;27.50;46.30
37786;DHT22;23625;48.784;9.336;2023-06-24T10:38:00;27.60;45.80
37786;DHT22;23625;48.784;9.336;2023-06-24T10:40:36;27.50;45.90
37786;DHT22;23625;48.784;9.336;2023-06-24T10:43:24;27.60;47.10
37786;DHT22;23625;48.784;9.336;2023-06-24T10:45:52;27.40;46.30
37786;DHT22;23625;48.784;9.336;2023-06-24T10:48:18;27.10;46.20
37786;DHT22;23625;48.784;9.336;2023-06-24T10:50:49;27.20;46.70
37786;DHT22;23625;48.784;9.336;2023-06-24T10:53:15;27.30;46.60
37786;DHT22;23625;48.784;9.336;2023-06-24T10:55:44;27.70;46.80
37786;DHT22;23625;48.784;9.336;2023-06-24T10:58:11;28.00;45.80
37786;DHT22;23625;48.784;9.336;2023-06-24T11:00:38;28.50;45.40
37786;DHT22;23625;48.784;9.336;2023-06-24T11:03:17;28.80;44.60
37786;DHT22;23625;48.784;9.336;2023-06-24T11:05:45;29.00;44.30
37786;DHT22;23625;48.784;9.336;2023-06-24T11:08:11;29.20;44.20
37786;DHT22;23625;48.784;9.336;2023-06-24T11:10:48;29.50;44.00
37786;DHT22;23625;48.784;9.336;2023-06-24T11:13:14;29.50;42.20
37786;DHT22;23625;48.784;9.336;2023-06-24T11:15:40;29.10;41.80
37786;DHT22;23625;48.784;9.336;2023-06-24T11:18:11;29.10;42.30
37786;DHT22;23625;48.784;9.336;2023-06-24T11:20:37;29.10;42.40
37786;DHT22;23625;48.784;9.336;2023-06-24T11:23:07;28.80;42.30
37786;DHT22;23625;48.784;9.336;2023-06-24T11:25:41;28.60;43.00
37786;DHT22;23625;48.784;9.336;2023-06-24T11:28:34;28.70;43.60
37786;DHT22;23625;48.784;9.336;2023-06-24T11:31:06;28.80;43.20
37786;DHT22;23625;48.784;9.336;2023-06-24T11:33:32;28.70;42.90
37786;DHT22;23625;48.784;9.336;2023-06-24T11:35:58;28.40;42.50
37786;DHT22;23625;48.784;9.336;2023-06-24T11:38:24;28.20;42.80
37786;DHT22;23625;48.784;9.336;2023-06-24T11:40:52;27.90;43.30
37786;DHT22;23625;48.784;9.336;2023-06-24T11:43:18;27.90;43.90
37786;DHT22;23625;48.784;9.336;2023-06-24T11:45:43;27.80;43.90
37786;DHT22;23625;48.784;9.336;2023-06-24T11:48:09;28.10;43.80
37786;DHT22;23625;48.784;9.336;2023-06-24T11:50:35;28.30;42.90
37786;DHT22;23625;48.784;9.336;2023-06-24T11:53:01;28.20;42.30
37786;DHT22;23625;48.784;9.336;2023-06-24T11:55:27;28.00;42.80
37786;DHT22;23625;48.784;9.336;2023-06-24T11:58:00;28.10;43.50
37786;DHT22;23625;48.784;9.336;2023-06-24T12:00:31;28.40;42.50
37786;DHT22;23625;48.784;9.336;2023-06-24T12:03:01;28.50;42.30
37786;DHT22;23625;48.784;9.336;2023-06-24T12:05:32;28.60;42.00
37786;DHT22;23625;48.784;9.336;2023-06-24T12:08:01;28.70;41.20
37786;DHT22;23625;48.784;9.336;2023-06-24T12:10:28;28.90;41.60
37786;DHT22;23625;48.784;9.336;2023-06-24T12:12:59;29.10;42.00
37786;DHT22;23625;48.784;9.336;2023-06-24T12:15:25;29.40;41.60
37786;DHT22;23625;48.784;9.336;2023-06-24T12:17:51;29.40;41.00
37786;DHT22;23625;48.784;9.336;2023-06-24T12:20:17;29.40;41.30
37786;DHT22;23625;48.784;9.336;2023-06-24T12:22:47;29.20;41.00
37786;DHT22;23625;48.784;9.336;2023-06-24T12:25:13;29.00;40.80
37786;DHT22;23625;48.784;9.336;2023-06-24T12:27:39;28.80;41.00
37786;DHT22;23625;48.784;9.336;2023-06-24T12:30:06;28.90;41.60
37786;DHT22;23625;48.784;9.336;2023-06-24T12:32:32;29.00;41.90
37786;DHT22;23625;48.784;9.336;2023-06-24T12:34:57;28.80;40.50
37786;DHT22;23625;48.784;9.336;2023-06-24T12:37:23;28.90;40.80
37786;DHT22;23625;48.784;9.336;2023-06-24T12:39:49;29.00;40.50
37786;DHT22;23625;48.784;9.336;2023-06-24T12:42:16;29.40;40.60
37786;DHT22;23625;48.784;9.336;2023-06-24T12:44:42;29.60;40.60
37786;DHT22;23625;48.784;9.336;2023-06-24T12:47:07;29.60;39.70
37786;DHT22;23625;48.784;9.336;2023-06-24T12:49:33;29.90;39.70
37786;DHT22;23625;48.784;9.336;2023-06-24T12:51:58;29.90;40.00
37786;DHT22;23625;48.784;9.336;2023-06-24T12:54:24;29.90;40.40
37786;DHT22;23625;48.784;9.336;2023-06-24T12:56:50;30.20;40.20
37786;DHT22;23625;48.784;9.336;2023-06-24T12:59:15;30.40;39.50
37786;DHT22;23625;48.784;9.336;2023-06-24T13:01:41;30.30;39.00
37786;DHT22;23625;48.784;9.336;2023-06-24T13:04:10;30.50;39.10
37786;DHT22;23625;48.784;9.336;2023-06-24T13:06:36;30.60;38.80
37786;DHT22;23625;48.784;9.336;2023-06-24T13:09:01;30.80;38.20
37786;DHT22;23625;48.784;9.336;2023-06-24T13:11:28;31.00;37.90
37786;DHT22;23625;48.784;9.336;2023-06-24T13:13:54;30.70;38.40
37786;DHT22;23625;48.784;9.336;2023-06-24T13:16:19;30.60;38.60
37786;DHT22;23625;48.784;9.336;2023-06-24T13:18:45;30.40;38.80
37786;DHT22;23625;48.784;9.336;2023-06-24T13:21:10;29.90;39.20
37786;DHT22;23625;48.784;9.336;2023-06-24T13:23:36;29.70;39.30
37786;DHT22;23625;48.784;9.336;2023-06-24T13:26:04;29.60;39.50
37786;DHT22;23625;48.784;9.336;2023-06-24T13:28:29;29.70;39.70
37786;DHT22;23625;48.784;9.336;2023-06-24T13:30:57;30.10;39.90
37786;DHT22;23625;48.784;9.336;2023-06-24T13:33:22;30.20;39.30
37786;DHT22;23625;48.784;9.336;2023-06-24T13:35:48;30.30;39.60
37786;DHT22;23625;48.784;9.336;2023-06-24T13:38:15;30.50;39.70
37786;DHT22;23625;48.784;9.336;2023-06-24T13:40:40;30.50;39.10
37786;DHT22;23625;48.784;9.336;2023-06-24T13:43:06;30.80;39.40
37786;DHT22;23625;48.784;9.336;2023-06-24T13:45:32;30.90;39.50
37786;DHT22;23625;48.784;9.336;2023-06-24T13:47:57;31.00;38.90
37786;DHT22;23625;48.784;9.336;2023-06-24T13:50:23;31.00;38.60
37786;DHT22;23625;48.784;9.336;2023-06-24T13:52:48;31.30;39.40
37786;DHT22;23625;48.784;9.336;2023-06-24T13:55:14;31.40;39.20
37786;DHT22;23625;48.784;9.336;2023-06-24T13:57:40;31.50;38.50
37786;DHT22;23625;48.784;9.336;2023-06-24T14:00:07;31.50;39.10
37786;DHT22;23625;48.784;9.336;2023-06-24T14:02:34;31.50;38.70
37786;DHT22;23625;48.784;9.336;2023-06-24T14:04:59;31.60;38.70
37786;DHT22;23625;48.784;9.336;2023-06-24T14:07:25;31.60;39.10
37786;DHT22;23625;48.784;9.336;2023-06-24T14:09:51;31.60;38.30
37786;DHT22;23625;48.784;9.336;2023-06-24T14:12:16;31.60;37.90
37786;DHT22;23625;48.784;9.336;2023-06-24T14:14:42;31.40;38.60
37786;DHT22;23625;48.784;9.336;2023-06-24T14:17:07;31.10;39.10
37786;DHT22;23625;48.784;9.336;2023-06-24T14:19:35;31.00;38.80
37786;DHT22;23625;48.784;9.336;2023-06-24T14:22:01;31.00;39.20
37786;DHT22;23625;48.784;9.336;2023-06-24T14:24:27;31.30;39.00
37786;DHT22;23625;48.784;9.336;2023-06-24T14:26:52;31.10;37.80
37786;DHT22;23625;48.784;9.336;2023-06-24T14:29:18;31.10;38.50
37786;DHT22;23625;48.784;9.336;2023-06-24T14:31:44;31.20;38.40
37786;DHT22;23625;48.784;9.336;2023-06-24T14:34:10;31.00;38.80
37786;DHT22;23625;48.784;9.336;2023-06-24T14:36:35;31.00;38.60
37786;DHT22;23625;48.784;9.336;2023-06-24T14:39:01;30.60;38.20
37786;DHT22;23625;48.784;9.336;2023-06-24T14:41:26;30.40;38.20
37786;DHT22;23625;48.784;9.336;2023-06-24T14:43:52;30.30;38.30
37786;DHT22;23625;48.784;9.336;2023-06-24T14:46:18;30.30;38.50
37786;DHT22;23625;48.784;9.336;2023-06-24T14:48:43;30.40;38.20
37786;DHT22;23625;48.784;9.336;2023-06-24T14:51:09;30.50;37.90
37786;DHT22;23625;48.784;9.336;2023-06-24T14:53:34;30.80;38.40
37786;DHT22;23625;48.784;9.336;2023-06-24T14:56:00;30.80;38.60
37786;DHT22;23625;48.784;9.336;2023-06-24T14:58:25;31.30;37.70
37786;DHT22;23625;48.784;9.336;2023-06-24T15:00:51;31.20;36.90
37786;DHT22;23625;48.784;9.336;2023-06-24T15:03:17;31.00;37.00
37786;DHT22;23625;48.784;9.336;2023-06-24T15:05:42;31.30;37.60
37786;DHT22;23625;48.784;9.336;2023-06-24T15:08:08;31.20;37.00
37786;DHT22;23625;48.784;9.336;2023-06-24T15:10:33;31.10;37.40
37786;DHT22;23625;48.784;9.336;2023-06-24T15:12:59;31.00;37.40
37786;DHT22;23625;48.784;9.336;2023-06-24T15:15:24;30.70;38.10
37786;DHT22;23625;48.784;9.336;2023-06-24T15:17:50;30.50;38.40
37786;DHT22;23625;48.784;9.336;2023-06-24T15:20:16;30.70;39.20
37786;DHT22;23625;48.784;9.336;2023-06-24T15:22:41;30.60;38.60
37786;DHT22;23625;48.784;9.336;2023-06-24T15:25:08;30.60;39.10
37786;DHT22;23625;48.784;9.336;2023-06-24T15:27:34;30.50;38.70
37786;DHT22;23625;48.784;9.336;2023-06-24T15:29:59;30.20;38.50
37786;DHT22;23625;48.784;9.336;2023-06-24T15:32:25;30.00;39.40
37786;DHT22;23625;48.784;9.336;2023-06-24T15:34:51;30.20;39.90
37786;DHT22;23625;48.784;9.336;2023-06-24T15:37:16;30.40;39.40
37786;DHT22;23625;48.784;9.336;2023-06-24T15:39:42;30.80;39.00
37786;DHT22;23625;48.784;9.336;2023-06-24T15:42:07;31.20;38.20
37786;DHT22;23625;48.784;9.336;2023-06-24T15:44:33;31.50;37.70
37786;DHT22;23625;48.784;9.336;2023-06-24T15:46:59;31.50;37.70